Time,TemperatureF,DewpointF,PressureIn,WindDirection,WindDirectionDegrees,WindSpeedMPH,WindSpeedGustMPH,Humidity,HourlyPrecipIn,Conditions,Clouds,dailyrainin,SoftwareType,DateUTC
2013-05-05 00:11:00,45.5,33.0,30.16,WSW,241,0.0,4.0,63,0.00,,,0.00,weatherlink.com 1.10,2013-05-05 04:11:00,
2013-05-05 00:26:00,45.5,33.0,30.16,SW,233,2.0,4.0,62,0.00,,,0.00,weatherlink.com 1.10,2013-05-05 04:26:00,
2013-05-05 00:41:00,45.1,33.0,30.15,SW,231,2.0,8.0,62,0.00,,,0.00,weatherlink.com 1.10,2013-05-05 04:41:00,
2013-05-05 00:56:00,44.8,34.0,30.15,SW,226,1.0,5.0,65,0.00,,,0.00,weatherlink.com 1.10,2013-05-05 04:56:00,
2013-05-05 01:11:00,44.5,34.0,30.15,West,281,0.0,4.0,67,0.00,,,0.00,weatherlink.com 1.10,2013-05-05 05:11:00,
2013-05-05 01:26:00,44.3,35.0,30.15,SSW,212,0.0,4.0,70,0.00,,,0.00,weatherlink.com 1.10,2013-05-05 05:26:00,
2013-05-05 01:41:00,44.0,36.0,30.14,WSW,238,1.0,4.0,73,0.00,,,0.00,weatherlink.com 1.10,2013-05-05 05:41:00,
2013-05-05 01:56:00,43.6,36.0,30.14,NE,44,0.0,3.0,75,0.00,,,0.00,weatherlink.com 1.10,2013-05-05 05:56:00,
2013-05-05 02:11:00,43.3,36.0,30.13,SSW,204,1.0,5.0,76,0.00,,,0.00,weatherlink.com 1.10,2013-05-05 06:11:00,
2013-05-05 02:26:00,43.3,36.0,30.12,West,276,1.0,3.0,76,0.00,,,0.00,weatherlink.com 1.10,2013-05-05 06:26:00,
2013-05-05 02:42:00,43.3,36.0,30.12,SSW,197,1.0,5.0,75,0.00,,,0.00,weatherlink.com 1.10,2013-05-05 06:42:00,
2013-05-05 02:56:00,43.4,35.0,30.11,ENE,64,0.0,8.0,73,0.00,,,0.00,weatherlink.com 1.10,2013-05-05 06:56:00,
2013-05-05 03:11:00,42.4,35.0,30.11,ENE,74,0.0,2.0,75,0.00,,,0.00,weatherlink.com 1.10,2013-05-05 07:11:00,
2013-05-05 03:26:00,42.5,35.0,30.11,West,268,1.0,5.0,76,0.00,,,0.00,weatherlink.com 1.10,2013-05-05 07:26:00,
2013-05-05 03:41:00,42.4,35.0,30.11,NE,43,4.0,8.0,75,0.00,,,0.00,weatherlink.com 1.10,2013-05-05 07:41:00,
2013-05-05 03:56:00,42.4,35.0,30.10,West,278,0.0,6.0,74,0.00,,,0.00,weatherlink.com 1.10,2013-05-05 07:56:00,
2013-05-05 04:11:00,42.4,33.0,30.09,WNW,288,0.0,8.0,69,0.00,,,0.00,weatherlink.com 1.10,2013-05-05 08:11:00,
2013-05-05 04:26:00,42.1,31.0,30.09,WNW,283,0.0,5.0,66,0.00,,,0.00,weatherlink.com 1.10,2013-05-05 08:26:00,
2013-05-05 04:41:00,42.1,25.0,30.10,WNW,294,1.0,5.0,51,0.00,,,0.00,weatherlink.com 1.10,2013-05-05 08:41:00,
2013-05-05 04:56:00,41.7,25.0,30.10,NE,43,1.0,3.0,51,0.00,,,0.00,weatherlink.com 1.10,2013-05-05 08:56:00,
2013-05-05 05:11:00,40.9,22.0,30.10,ESE,120,2.0,4.0,48,0.00,,,0.00,weatherlink.com 1.10,2013-05-05 09:11:00,
2013-05-05 05:26:00,40.7,25.0,30.09,ESE,123,0.0,9.0,54,0.00,,,0.00,weatherlink.com 1.10,2013-05-05 09:26:00,
2013-05-05 05:41:00,40.0,27.0,30.09,NNE,20,1.0,5.0,61,0.00,,,0.00,weatherlink.com 1.10,2013-05-05 09:41:00,
2013-05-05 05:56:00,39.0,26.0,30.10,SSE,163,0.0,4.0,60,0.00,,,0.00,weatherlink.com 1.10,2013-05-05 09:56:00,
2013-05-05 06:11:00,38.4,25.0,30.10,ESE,103,0.0,2.0,59,0.00,,,0.00,weatherlink.com 1.10,2013-05-05 10:11:00,
2013-05-05 06:26:00,37.9,26.0,30.11,NNW,332,1.0,2.0,63,0.00,,,0.00,weatherlink.com 1.10,2013-05-05 10:26:00,
2013-05-05 06:41:00,37.5,29.0,30.11,SE,145,1.0,3.0,70,0.00,,,0.00,weatherlink.com 1.10,2013-05-05 10:41:00,
2013-05-05 06:56:00,36.8,29.0,30.11,SW,221,0.0,4.0,74,0.00,,,0.00,weatherlink.com 1.10,2013-05-05 10:56:00,
2013-05-05 07:12:00,36.3,30.0,30.11,SW,231,0.0,2.0,79,0.00,,,0.00,weatherlink.com 1.10,2013-05-05 11:12:00,
2013-05-05 07:27:00,36.1,31.0,30.12,SE,132,1.0,3.0,80,0.00,,,0.00,weatherlink.com 1.10,2013-05-05 11:27:00,
2013-05-05 07:42:00,36.1,31.0,30.12,SSW,198,0.0,3.0,80,0.00,,,0.00,weatherlink.com 1.10,2013-05-05 11:42:00,
2013-05-05 07:57:00,36.2,31.0,30.12,South,184,0.0,1.0,80,0.00,,,0.00,weatherlink.com 1.10,2013-05-05 11:57:00,
2013-05-05 08:12:00,37.2,31.0,30.12,SW,225,0.0,1.0,78,0.00,,,0.00,weatherlink.com 1.10,2013-05-05 12:12:00,
2013-05-05 08:27:00,38.0,31.0,30.12,West,276,1.0,3.0,77,0.00,,,0.00,weatherlink.com 1.10,2013-05-05 12:27:00,
2013-05-05 08:42:00,38.8,32.0,30.12,SE,127,0.0,3.0,77,0.00,,,0.00,weatherlink.com 1.10,2013-05-05 12:42:00,
2013-05-05 08:57:00,39.5,34.0,30.13,SW,226,1.0,5.0,79,0.00,,,0.00,weatherlink.com 1.10,2013-05-05 12:57:00,
2013-05-05 09:12:00,39.4,34.0,30.14,WSW,249,1.0,2.0,81,0.00,,,0.00,weatherlink.com 1.10,2013-05-05 13:12:00,
2013-05-05 09:27:00,39.4,34.0,30.14,West,263,6.0,8.0,81,0.00,,,0.00,weatherlink.com 1.10,2013-05-05 13:27:00,
2013-05-05 09:42:00,39.7,34.0,30.13,SSW,194,1.0,6.0,81,0.00,,,0.00,weatherlink.com 1.10,2013-05-05 13:42:00,
2013-05-05 09:56:00,40.6,35.0,30.13,West,269,3.0,7.0,79,0.00,,,0.00,weatherlink.com 1.10,2013-05-05 13:56:00,
2013-05-05 10:11:00,42.3,35.0,30.13,SW,221,4.0,6.0,75,0.00,,,0.00,weatherlink.com 1.10,2013-05-05 14:11:00,
2013-05-05 10:28:00,44.3,36.0,30.13,SW,217,1.0,5.0,72,0.00,,,0.00,weatherlink.com 1.10,2013-05-05 14:28:00,
2013-05-05 10:43:00,45.5,35.0,30.13,WSW,243,4.0,7.0,66,0.00,,,0.00,weatherlink.com 1.10,2013-05-05 14:43:00,
2013-05-05 10:59:00,47.3,35.0,30.12,WSW,253,3.0,5.0,62,0.00,,,0.00,weatherlink.com 1.10,2013-05-05 14:59:00,
2013-05-05 11:13:00,48.3,35.0,30.12,North,6,1.0,6.0,61,0.00,,,0.00,weatherlink.com 1.10,2013-05-05 15:13:00,
2013-05-05 11:28:00,49.5,34.0,30.12,SSW,193,2.0,4.0,56,0.00,,,0.00,weatherlink.com 1.10,2013-05-05 15:28:00,
2013-05-05 11:44:00,50.3,34.0,30.12,WSW,251,0.0,7.0,54,0.00,,,0.00,weatherlink.com 1.10,2013-05-05 15:44:00,
2013-05-05 11:59:00,52.4,35.0,30.12,NW,307,0.0,3.0,52,0.00,,,0.00,weatherlink.com 1.10,2013-05-05 15:59:00,
2013-05-05 12:15:00,53.4,37.0,30.11,SW,229,2.0,6.0,54,0.00,,,0.00,weatherlink.com 1.10,2013-05-05 16:15:00,
2013-05-05 12:30:00,55.2,36.0,30.10,NNE,26,0.0,4.0,49,0.00,,,0.00,weatherlink.com 1.10,2013-05-05 16:30:00,
2013-05-05 12:45:00,54.2,37.0,30.11,NNW,336,3.0,5.0,53,0.00,,,0.00,weatherlink.com 1.10,2013-05-05 16:45:00,
2013-05-05 13:02:00,55.5,38.0,30.11,WSW,243,2.0,4.0,53,0.00,,,0.00,weatherlink.com 1.10,2013-05-05 17:02:00,
2013-05-05 13:16:00,55.5,38.0,30.11,North,352,1.0,6.0,53,0.00,,,0.00,weatherlink.com 1.10,2013-05-05 17:16:00,
2013-05-05 13:31:00,57.2,39.0,30.10,SW,222,3.0,5.0,51,0.00,,,0.00,weatherlink.com 1.10,2013-05-05 17:31:00,
2013-05-05 13:46:00,58.6,38.0,30.10,NNW,333,1.0,5.0,47,0.00,,,0.00,weatherlink.com 1.10,2013-05-05 17:46:00,
2013-05-05 14:01:00,59.3,36.0,30.10,West,267,3.0,5.0,42,0.00,,,0.00,weatherlink.com 1.10,2013-05-05 18:01:00,
2013-05-05 14:16:00,58.3,38.0,30.10,West,266,0.0,6.0,47,0.00,,,0.00,weatherlink.com 1.10,2013-05-05 18:16:00,
2013-05-05 14:31:00,59.5,39.0,30.09,WSW,243,5.0,5.0,46,0.00,,,0.00,weatherlink.com 1.10,2013-05-05 18:31:00,
2013-05-05 14:46:00,58.8,37.0,30.08,West,263,3.0,6.0,45,0.00,,,0.00,weatherlink.com 1.10,2013-05-05 18:46:00,
2013-05-05 15:01:00,60.2,40.0,30.07,SW,231,1.0,7.0,47,0.00,,,0.00,weatherlink.com 1.10,2013-05-05 19:01:00,
2013-05-05 15:16:00,61.3,40.0,30.07,NW,308,1.0,8.0,45,0.00,,,0.00,weatherlink.com 1.10,2013-05-05 19:16:00,
2013-05-05 15:31:00,60.7,39.0,30.07,SE,146,1.0,6.0,45,0.00,,,0.00,weatherlink.com 1.10,2013-05-05 19:31:00,
2013-05-05 15:46:00,60.4,40.0,30.06,SW,221,2.0,7.0,47,0.00,,,0.00,weatherlink.com 1.10,2013-05-05 19:46:00,
2013-05-05 16:02:00,59.7,40.0,30.06,SW,217,2.0,7.0,48,0.00,,,0.00,weatherlink.com 1.10,2013-05-05 20:02:00,
2013-05-05 16:17:00,59.6,39.0,30.06,SW,226,3.0,8.0,47,0.00,,,0.00,weatherlink.com 1.10,2013-05-05 20:17:00,
2013-05-05 16:32:00,58.5,40.0,30.06,SSE,167,2.0,8.0,51,0.00,,,0.00,weatherlink.com 1.10,2013-05-05 20:32:00,
2013-05-05 16:47:00,56.9,40.0,30.06,SW,226,6.0,7.0,53,0.00,,,0.00,weatherlink.com 1.10,2013-05-05 20:47:00,
2013-05-05 17:02:00,58.0,41.0,30.07,WSW,256,3.0,6.0,53,0.00,,,0.00,weatherlink.com 1.10,2013-05-05 21:02:00,
2013-05-05 17:17:00,58.3,41.0,30.07,West,259,4.0,6.0,52,0.00,,,0.00,weatherlink.com 1.10,2013-05-05 21:17:00,
2013-05-05 17:32:00,57.3,41.0,30.07,ESE,108,2.0,10.0,54,0.00,,,0.00,weatherlink.com 1.10,2013-05-05 21:32:00,
2013-05-05 17:47:00,55.1,40.0,30.06,WSW,238,4.0,5.0,58,0.00,,,0.00,weatherlink.com 1.10,2013-05-05 21:47:00,
2013-05-05 18:02:00,55.3,41.0,30.07,NW,307,1.0,8.0,59,0.00,,,0.00,weatherlink.com 1.10,2013-05-05 22:02:00,
2013-05-05 18:17:00,54.5,40.0,30.06,West,274,1.0,5.0,59,0.00,,,0.00,weatherlink.com 1.10,2013-05-05 22:17:00,
2013-05-05 18:32:00,54.2,40.0,30.07,ENE,58,2.0,5.0,60,0.00,,,0.00,weatherlink.com 1.10,2013-05-05 22:32:00,
2013-05-05 18:47:00,53.8,40.0,30.06,NW,314,0.0,5.0,60,0.00,,,0.00,weatherlink.com 1.10,2013-05-05 22:47:00,
2013-05-05 19:02:00,52.1,41.0,30.07,SW,229,2.0,4.0,65,0.00,,,0.00,weatherlink.com 1.10,2013-05-05 23:02:00,
2013-05-05 19:17:00,51.3,40.0,30.06,WNW,301,1.0,10.0,66,0.00,,,0.00,weatherlink.com 1.10,2013-05-05 23:17:00,
2013-05-05 19:32:00,50.5,40.0,30.06,SW,235,3.0,6.0,68,0.00,,,0.00,weatherlink.com 1.10,2013-05-05 23:32:00,
2013-05-05 19:47:00,49.8,41.0,30.06,East,79,1.0,5.0,71,0.00,,,0.00,weatherlink.com 1.10,2013-05-05 23:47:00,
2013-05-05 20:02:00,49.0,41.0,30.07,NW,320,2.0,4.0,73,0.00,,,0.00,weatherlink.com 1.10,2013-05-06 00:02:00,
2013-05-05 20:17:00,48.4,41.0,30.07,SW,236,0.0,4.0,75,0.00,,,0.00,weatherlink.com 1.10,2013-05-06 00:17:00,
2013-05-05 20:32:00,48.1,41.0,30.07,NW,307,0.0,6.0,76,0.00,,,0.00,weatherlink.com 1.10,2013-05-06 00:32:00,
2013-05-05 20:48:00,47.5,41.0,30.07,NNW,327,3.0,4.0,78,0.00,,,0.00,weatherlink.com 1.10,2013-05-06 00:48:00,
2013-05-05 21:02:00,47.1,41.0,30.07,NW,319,2.0,5.0,79,0.00,,,0.00,weatherlink.com 1.10,2013-05-06 01:02:00,
2013-05-05 21:18:00,46.8,41.0,30.07,NW,326,3.0,8.0,80,0.00,,,0.00,weatherlink.com 1.10,2013-05-06 01:18:00,
2013-05-05 21:33:00,46.5,41.0,30.07,WNW,297,5.0,6.0,80,0.00,,,0.00,weatherlink.com 1.10,2013-05-06 01:33:00,
2013-05-05 21:48:00,46.3,41.0,30.07,WNW,291,3.0,8.0,82,0.00,,,0.00,weatherlink.com 1.10,2013-05-06 01:48:00,
2013-05-05 22:05:00,46.0,41.0,30.07,WSW,253,2.0,8.0,84,0.00,,,0.00,weatherlink.com 1.10,2013-05-06 02:05:00,
2013-05-05 22:18:00,45.9,42.0,30.08,WNW,285,1.0,8.0,85,0.00,,,0.00,weatherlink.com 1.10,2013-05-06 02:18:00,
2013-05-05 22:33:00,45.8,42.0,30.08,WSW,256,2.0,6.0,85,0.00,,,0.00,weatherlink.com 1.10,2013-05-06 02:33:00,
2013-05-05 22:48:00,45.8,42.0,30.09,WSW,247,5.0,7.0,86,0.00,,,0.00,weatherlink.com 1.10,2013-05-06 02:48:00,
2013-05-05 23:03:00,45.8,42.0,30.09,NNW,335,0.0,11.0,86,0.00,,,0.00,weatherlink.com 1.10,2013-05-06 03:03:00,
2013-05-05 23:18:00,45.8,42.0,30.09,North,7,1.0,5.0,86,0.00,,,0.00,weatherlink.com 1.10,2013-05-06 03:18:00,
2013-05-05 23:33:00,45.6,42.0,30.09,WNW,294,1.0,5.0,87,0.00,,,0.00,weatherlink.com 1.10,2013-05-06 03:33:00,
2013-05-05 23:48:00,45.2,42.0,30.09,NW,305,6.0,7.0,88,0.00,,,0.00,weatherlink.com 1.10,2013-05-06 03:48:00,